createdAt,value
2023-03-04T00:00:06.912Z,5.1
2023-03-04T00:01:06.841Z,5.15
2023-03-04T00:02:07.028Z,5.11
2023-03-04T00:03:06.964Z,5.14
2023-03-04T00:04:06.765Z,5.14
2023-03-04T00:05:06.697Z,5.12
2023-03-04T00:06:06.665Z,5.14
2023-03-04T00:07:06.634Z,5.1
2023-03-04T00:08:06.593Z,5.18
2023-03-04T00:09:06.659Z,5.14
2023-03-04T00:10:06.569Z,5.15
2023-03-04T00:11:06.499Z,5.08
2023-03-04T00:12:06.476Z,5.15
2023-03-04T00:13:06.446Z,5.1
2023-03-04T00:14:06.443Z,5.18
2023-03-04T00:15:06.376Z,5.14
2023-03-04T00:16:06.525Z,5.18
2023-03-04T00:17:06.293Z,5.17
2023-03-04T00:18:06.290Z,5.12
2023-03-04T00:19:06.006Z,5.12
2023-03-04T00:20:06.195Z,5.21
2023-03-04T00:21:06.211Z,5.12
2023-03-04T00:22:06.220Z,5.12
2023-03-04T00:23:06.096Z,5.14
2023-03-04T00:24:06.053Z,5.11
2023-03-04T00:25:06.019Z,5.15
2023-03-04T00:26:06.000Z,5.12
2023-03-04T00:27:05.963Z,5.21
2023-03-04T00:28:05.937Z,5.17
2023-03-04T00:29:05.990Z,5.12
2023-03-04T00:30:05.889Z,5.2
2023-03-04T00:31:05.817Z,5.14
2023-03-04T00:32:06.357Z,5.2
2023-03-04T00:33:05.748Z,5.2
2023-03-04T00:34:05.734Z,5.12
2023-03-04T00:35:05.723Z,5.08
2023-03-04T00:36:05.649Z,5.17
2023-03-04T00:37:05.610Z,5.11
2023-03-04T00:38:05.577Z,5.21
2023-03-04T00:39:05.540Z,5.08
2023-03-04T00:40:05.525Z,5.2
2023-03-04T00:41:05.483Z,5.17
2023-03-04T00:42:05.445Z,5.18
2023-03-04T00:43:05.409Z,5.12
2023-03-04T00:44:05.384Z,5.14
2023-03-04T00:45:05.351Z,5.17
2023-03-04T00:46:05.514Z,5.12
2023-03-04T00:47:05.273Z,5.17
2023-03-04T00:48:05.242Z,5.14
2023-03-04T00:49:05.383Z,5.12
2023-03-04T00:50:05.198Z,5.17
2023-03-04T00:51:05.172Z,5.12
2023-03-04T00:52:05.141Z,5.21
2023-03-04T00:53:05.082Z,5.21
2023-03-04T00:54:05.809Z,5.18
2023-03-04T00:55:05.038Z,5.14
2023-03-04T00:56:04.996Z,5.17
2023-03-04T00:57:04.955Z,5.21
2023-03-04T00:58:04.897Z,5.14
2023-03-04T00:59:04.923Z,5.12
2023-03-04T01:00:04.878Z,5.17
2023-03-04T01:01:05.004Z,5.17
2023-03-04T01:02:05.268Z,5.2
2023-03-04T01:03:04.737Z,5.2
2023-03-04T01:04:04.713Z,5.14
2023-03-04T01:05:04.703Z,5.12
2023-03-04T01:06:04.676Z,5.17
2023-03-04T01:07:04.646Z,5.15
2023-03-04T01:08:04.564Z,5.12
2023-03-04T01:09:04.537Z,5.11
2023-03-04T01:10:04.496Z,5.1
2023-03-04T01:11:04.476Z,5.17
2023-03-04T01:12:04.450Z,5.26
2023-03-04T01:13:04.410Z,5.18
2023-03-04T01:14:04.382Z,5.21
2023-03-04T01:15:04.333Z,5.2
2023-03-04T01:16:04.057Z,5.2
2023-03-04T01:17:04.357Z,5.21
2023-03-04T01:18:04.611Z,5.2
2023-03-04T01:19:04.195Z,5.26
2023-03-04T01:20:04.198Z,5.12
2023-03-04T01:21:04.131Z,5.2
2023-03-04T01:22:04.113Z,5.15
2023-03-04T01:23:04.093Z,5.28
2023-03-04T01:24:04.023Z,5.28
2023-03-04T01:25:03.985Z,5.12
2023-03-04T01:26:03.952Z,5.29
2023-03-04T01:27:03.664Z,5.3
2023-03-04T01:28:03.884Z,5.26
2023-03-04T01:29:03.870Z,5.29
2023-03-04T01:30:03.809Z,5.3
2023-03-04T01:31:03.956Z,5.26
2023-03-04T01:32:03.934Z,5.28
2023-03-04T01:33:03.736Z,5.28
2023-03-04T01:34:03.729Z,5.26
2023-03-04T01:35:03.714Z,5.26
2023-03-04T01:36:03.630Z,5.29
2023-03-04T01:37:03.581Z,5.29
2023-03-04T01:38:04.936Z,5.23
2023-03-04T01:39:03.537Z,5.21
2023-03-04T01:40:03.473Z,5.25
2023-03-04T01:41:03.452Z,5.26
2023-03-04T01:42:03.511Z,5.29
2023-03-04T01:43:03.372Z,5.28
2023-03-04T01:44:03.408Z,5.3
2023-03-04T01:45:03.307Z,5.26
2023-03-04T01:46:03.586Z,5.26
2023-03-04T01:47:03.240Z,5.23
2023-03-04T01:48:03.210Z,5.25
2023-03-04T01:49:03.411Z,5.26
2023-03-04T01:50:03.198Z,5.26
2023-03-04T01:51:03.118Z,5.26
2023-03-04T01:52:03.067Z,5.14
2023-03-04T01:53:03.052Z,5.26
2023-03-04T01:54:03.044Z,5.25
2023-03-04T01:55:03.012Z,5.26
2023-03-04T01:56:02.938Z,5.29
2023-03-04T01:57:02.908Z,5.23
2023-03-04T01:58:02.887Z,5.14
2023-03-04T01:59:02.832Z,5.2
2023-03-04T02:00:02.810Z,5.15
2023-03-04T02:01:02.783Z,5.11
2023-03-04T02:02:02.486Z,5.15
2023-03-04T02:03:02.718Z,5.12
2023-03-04T02:04:02.814Z,5.15
2023-03-04T02:05:02.630Z,5.17
2023-03-04T02:06:02.632Z,5.11
2023-03-04T02:07:02.560Z,5.15
2023-03-04T02:08:02.560Z,5.23
2023-03-04T02:09:02.501Z,5.2
2023-03-04T02:10:02.514Z,5.14
2023-03-04T02:11:02.498Z,5.26
2023-03-04T02:12:02.423Z,5.21
2023-03-04T02:13:02.373Z,5.26
2023-03-04T02:14:02.332Z,5.25
2023-03-04T02:15:02.663Z,5.12
2023-03-04T02:16:02.476Z,5.21
2023-03-04T02:17:02.240Z,5.17
2023-03-04T02:18:02.195Z,5.2
2023-03-04T02:19:01.924Z,5.28
2023-03-04T02:20:02.123Z,5.25
2023-03-04T02:21:02.088Z,5.14
2023-03-04T02:22:02.083Z,5.2
2023-03-04T02:23:02.014Z,5.15
2023-03-04T02:24:01.993Z,5.15
2023-03-04T02:25:01.964Z,5.12
2023-03-04T02:26:01.940Z,5.21
2023-03-04T02:27:01.911Z,5.17
2023-03-04T02:28:01.863Z,5.14
2023-03-04T02:29:01.816Z,5.14
2023-03-04T02:30:01.789Z,5.12
2023-03-04T02:31:01.900Z,5.17
2023-03-04T02:32:01.895Z,5.2
2023-03-04T02:33:01.673Z,5.17
2023-03-04T02:34:01.663Z,5.14
2023-03-04T02:35:01.800Z,5.11
2023-03-04T02:36:01.680Z,5.12
2023-03-04T02:37:01.559Z,5.15
2023-03-04T02:38:01.591Z,5.1
2023-03-04T02:39:01.635Z,5.18
2023-03-04T02:40:01.480Z,5.14
2023-03-04T02:41:01.410Z,5.07
2023-03-04T02:42:01.410Z,5.11
2023-03-04T02:43:01.365Z,5.12
2023-03-04T02:44:01.307Z,5.1
2023-03-04T02:45:01.284Z,5.11
2023-03-04T02:46:01.238Z,5.14
2023-03-04T02:47:01.282Z,5.07
2023-03-04T02:48:01.199Z,5.02
2023-03-04T02:49:01.198Z,5.07
2023-03-04T02:50:01.107Z,5.07
2023-03-04T02:51:01.084Z,5.11
2023-03-04T02:52:01.032Z,5.11
2023-03-04T02:53:00.997Z,5.12
2023-03-04T02:54:00.995Z,5.12
2023-03-04T02:55:00.958Z,5.11
2023-03-04T02:56:00.894Z,5.12
2023-03-04T02:57:00.877Z,5.08
2023-03-04T02:58:00.853Z,5.07
2023-03-04T02:59:00.833Z,5.07
2023-03-04T03:00:00.771Z,5.11
2023-03-04T03:01:00.760Z,5.15
2023-03-04T03:02:00.975Z,5.08
2023-03-04T03:03:00.822Z,5.12
2023-03-04T03:04:00.662Z,5.02
2023-03-04T03:05:00.594Z,5.1
2023-03-04T03:06:00.574Z,5.04
2023-03-04T03:07:00.536Z,5.15
2023-03-04T03:08:00.491Z,5.12
2023-03-04T03:09:00.464Z,5.05
2023-03-04T03:10:00.446Z,5.07
2023-03-04T03:11:00.401Z,5.07
2023-03-04T03:12:00.349Z,5.15
2023-03-04T03:13:00.357Z,5.18
2023-03-04T03:14:00.309Z,5.12
2023-03-04T03:15:00.294Z,5.14
2023-03-04T03:16:00.361Z,5.15
2023-03-04T03:17:00.182Z,5.11
2023-03-04T03:18:00.156Z,5.14
2023-03-04T03:19:00.115Z,5.12
2023-03-04T03:20:00.113Z,5.12
2023-03-04T03:21:00.044Z,5.12
2023-03-04T03:22:00.091Z,5.14
2023-03-04T03:22:59.973Z,5.11
2023-03-04T03:23:59.955Z,5.12
2023-03-04T03:24:59.914Z,5.12
2023-03-04T03:25:59.911Z,5.08
2023-03-04T03:26:59.856Z,5.14
2023-03-04T03:27:59.849Z,5.14
2023-03-04T03:28:59.766Z,5.12
2023-03-04T03:29:59.768Z,5.11
2023-03-04T03:30:59.734Z,5.15
2023-03-04T03:31:59.987Z,5.17
2023-03-04T03:32:59.637Z,5.12
2023-03-04T03:33:59.609Z,5.12
2023-03-04T03:34:59.606Z,5.11
2023-03-04T03:36:00.028Z,5.12
2023-03-04T03:36:59.532Z,5.14
2023-03-04T03:37:59.467Z,5.17
2023-03-04T03:38:59.448Z,5.15
2023-03-04T03:39:59.399Z,5.12
2023-03-04T03:40:59.363Z,5.12
2023-03-04T03:41:59.386Z,5.17
2023-03-04T03:42:59.337Z,5.15
2023-03-04T03:43:59.277Z,5.17
2023-03-04T03:44:59.283Z,5.08
2023-03-04T03:45:59.386Z,5.14
2023-03-04T03:46:59.188Z,5.1
2023-03-04T03:47:59.123Z,5.15
2023-03-04T03:48:59.096Z,5.11
2023-03-04T03:49:59.084Z,5.11
2023-03-04T03:50:59.019Z,5.2
2023-03-04T03:51:58.999Z,5.14
2023-03-04T03:52:58.961Z,5.12
2023-03-04T03:53:58.957Z,5.15
2023-03-04T03:55:01.344Z,5.2
2023-03-04T03:55:58.855Z,5.15
2023-03-04T03:56:58.828Z,5.15
2023-03-04T03:57:58.817Z,5.15
2023-03-04T03:58:58.526Z,5.15
2023-03-04T03:59:58.719Z,5.14
2023-03-04T04:01:01.062Z,5.17
2023-03-04T04:01:59.066Z,5.2
2023-03-04T04:02:58.948Z,5.15
2023-03-04T04:03:58.349Z,5.11
2023-03-04T04:04:58.570Z,5.12
2023-03-04T04:05:58.577Z,5.14
2023-03-04T04:06:58.496Z,5.08
2023-03-04T04:07:58.979Z,5.12
2023-03-04T04:08:58.429Z,5.15
2023-03-04T04:09:58.377Z,5.11
2023-03-04T04:10:58.362Z,5.12
2023-03-04T04:11:58.332Z,5.15
2023-03-04T04:12:58.278Z,5.15
2023-03-04T04:13:58.289Z,5.12
2023-03-04T04:14:58.270Z,5.14
2023-03-04T04:15:58.189Z,5.11
2023-03-04T04:16:58.277Z,5.12
2023-03-04T04:17:58.185Z,5.17
2023-03-04T04:18:58.128Z,5.05
2023-03-04T04:19:58.060Z,5.1
2023-03-04T04:20:58.054Z,5.11
2023-03-04T04:21:57.976Z,5.1
2023-03-04T04:22:57.970Z,5.14
2023-03-04T04:23:57.914Z,5.11
2023-03-04T04:24:57.925Z,5.1
2023-03-04T04:25:57.840Z,5.08
2023-03-04T04:26:57.832Z,5.17
2023-03-04T04:27:57.773Z,5.1
2023-03-04T04:28:57.740Z,5.07
2023-03-04T04:29:57.816Z,5.1
2023-03-04T04:30:57.867Z,5.17
2023-03-04T04:31:57.707Z,5.07
2023-03-04T04:32:57.609Z,5.08
2023-03-04T04:33:57.352Z,5.07
2023-03-04T04:34:57.580Z,5.08
2023-03-04T04:35:57.587Z,5.07
2023-03-04T04:36:57.460Z,5.17
2023-03-04T04:37:57.443Z,5.12
2023-03-04T04:38:57.394Z,5.08
2023-03-04T04:39:57.358Z,5.07
2023-03-04T04:40:57.319Z,5.07
2023-03-04T04:41:57.290Z,5.07
2023-03-04T04:42:57.251Z,5.1
2023-03-04T04:43:57.215Z,5.07
2023-03-04T04:44:57.191Z,5.07
2023-03-04T04:45:57.334Z,5.2
2023-03-04T04:46:57.130Z,5.12
2023-03-04T04:47:57.090Z,5.05
2023-03-04T04:48:57.054Z,5.08
2023-03-04T04:49:57.042Z,5.11
2023-03-04T04:50:57.010Z,5.04
2023-03-04T04:51:56.961Z,5.05
2023-03-04T04:52:56.923Z,5.05
2023-03-04T04:53:56.895Z,5.1
2023-03-04T04:54:56.890Z,5.04
2023-03-04T04:55:56.807Z,5.07
2023-03-04T04:56:56.780Z,5.11
2023-03-04T04:57:56.735Z,5.08
2023-03-04T04:58:56.705Z,5.11
2023-03-04T04:59:56.434Z,5.1
2023-03-04T05:00:56.749Z,5.1
2023-03-04T05:01:56.731Z,5.1
2023-03-04T05:02:56.759Z,5.1
2023-03-04T05:03:56.544Z,5.08
2023-03-04T05:04:56.508Z,5.12
2023-03-04T05:05:56.493Z,5.07
2023-03-04T05:06:56.472Z,5.14
2023-03-04T05:07:56.412Z,5.04
2023-03-04T05:08:56.370Z,5.1
2023-03-04T05:09:56.342Z,5.1
2023-03-04T05:10:56.316Z,5.18
2023-03-04T05:11:56.262Z,5.1
2023-03-04T05:12:56.240Z,5.12
2023-03-04T05:13:56.218Z,5.1
2023-03-04T05:14:56.173Z,5.1
2023-03-04T05:15:56.519Z,5.07
2023-03-04T05:16:56.110Z,5.07
2023-03-04T05:17:56.094Z,5.08
2023-03-04T05:18:56.035Z,5.12
2023-03-04T05:19:55.997Z,5.07
2023-03-04T05:20:55.965Z,5.08
2023-03-04T05:21:56.022Z,5.12
2023-03-04T05:22:55.966Z,5.14
2023-03-04T05:23:55.866Z,5.14
2023-03-04T05:24:55.825Z,5.08
2023-03-04T05:25:55.798Z,5.05
2023-03-04T05:26:55.757Z,5.07
2023-03-04T05:27:55.760Z,5.07
2023-03-04T05:28:55.707Z,5.15
2023-03-04T05:29:55.720Z,5.07
2023-03-04T05:30:55.763Z,5.05
2023-03-04T05:31:55.631Z,5.04
2023-03-04T05:32:55.557Z,5.05
2023-03-04T05:33:55.570Z,5.04
2023-03-04T05:34:55.492Z,5.1
2023-03-04T05:35:55.622Z,5.14
2023-03-04T05:36:55.423Z,5.05
2023-03-04T05:37:55.436Z,5
2023-03-04T05:38:55.386Z,5.02
2023-03-04T05:39:55.325Z,5
2023-03-04T05:40:55.296Z,5.05
2023-03-04T05:41:55.259Z,5.14
2023-03-04T05:42:55.227Z,5.07
2023-03-04T05:43:55.183Z,5.11
2023-03-04T05:44:55.192Z,5.12
2023-03-04T05:45:55.132Z,5.02
2023-03-04T05:46:55.345Z,5.02
2023-03-04T05:47:55.091Z,5.08
2023-03-04T05:48:55.035Z,5.04
2023-03-04T05:49:55.005Z,5.04
2023-03-04T05:50:54.962Z,5.1
2023-03-04T05:51:54.923Z,5.08
2023-03-04T05:52:54.878Z,5.11
2023-03-04T05:53:54.884Z,5.05
2023-03-04T05:54:54.841Z,5.08
2023-03-04T05:55:54.575Z,5.05
2023-03-04T05:56:54.771Z,5.05
2023-03-04T05:57:54.702Z,5.11
2023-03-04T05:58:54.709Z,5.11
2023-03-04T05:59:54.655Z,5.11
2023-03-04T06:00:54.644Z,5.1
2023-03-04T06:01:54.585Z,5.1
2023-03-04T06:02:54.822Z,5.1
2023-03-04T06:03:54.682Z,5.07
2023-03-04T06:04:54.482Z,5.07
2023-03-04T06:05:54.472Z,5.1
2023-03-04T06:06:54.409Z,5.12
2023-03-04T06:07:54.445Z,5.11
2023-03-04T06:08:54.356Z,5.1
2023-03-04T06:09:54.332Z,5.12
2023-03-04T06:10:54.287Z,5.1
2023-03-04T06:11:54.248Z,5.11
2023-03-04T06:12:54.211Z,5.15
2023-03-04T06:13:54.388Z,5.1
2023-03-04T06:14:54.127Z,5.04
2023-03-04T06:15:54.209Z,5.05
2023-03-04T06:16:54.083Z,5.12
2023-03-04T06:17:54.025Z,5.05
2023-03-04T06:18:54.012Z,5
2023-03-04T06:19:53.959Z,5.05
2023-03-04T06:20:53.926Z,5.14
2023-03-04T06:21:53.920Z,5.1
2023-03-04T06:22:53.922Z,5.05
2023-03-04T06:23:53.824Z,5.07
2023-03-04T06:24:53.791Z,5.11
2023-03-04T06:25:53.776Z,5.11
2023-03-04T06:26:53.738Z,5.18
2023-03-04T06:27:57.580Z,5.12
2023-03-04T06:28:53.663Z,5.1
2023-03-04T06:29:53.616Z,5.14
2023-03-04T06:30:53.600Z,5.15
2023-03-04T06:31:53.805Z,5.12
2023-03-04T06:32:53.533Z,5.17
2023-03-04T06:33:53.478Z,5.15
2023-03-04T06:34:53.464Z,5.11
2023-03-04T06:35:53.624Z,5.15
2023-03-04T06:36:53.135Z,5.12
2023-03-04T06:37:53.391Z,5.1
2023-03-04T06:38:53.327Z,5.14
2023-03-04T06:39:53.294Z,5.17
2023-03-04T06:40:55.387Z,5.15
2023-03-04T06:41:53.236Z,5.17
2023-03-04T06:42:53.204Z,5.14
2023-03-04T06:43:53.150Z,5.15
2023-03-04T06:44:53.103Z,5.12
2023-03-04T06:45:53.094Z,5.07
2023-03-04T06:46:53.154Z,5.15
2023-03-04T06:47:53.007Z,5.15
2023-03-04T06:48:52.968Z,5.15
2023-03-04T06:49:52.939Z,5.14
2023-03-04T06:50:52.910Z,5.14
2023-03-04T06:51:52.871Z,5.17
2023-03-04T06:52:52.864Z,5.25
2023-03-04T06:53:52.867Z,5.26
2023-03-04T06:54:52.828Z,5.26
2023-03-04T06:55:52.766Z,5.3
2023-03-04T06:56:52.704Z,5.26
2023-03-04T06:57:53.524Z,5.23
2023-03-04T06:58:52.664Z,5.28
2023-03-04T06:59:52.599Z,5.28
2023-03-04T07:00:52.706Z,5.26
2023-03-04T07:01:52.547Z,5.23
2023-03-04T07:02:54.781Z,5.29
2023-03-04T07:03:52.765Z,5.29
2023-03-04T07:04:52.428Z,5.25
2023-03-04T07:05:52.448Z,5.3
2023-03-04T07:06:52.357Z,5.23
2023-03-04T07:07:52.327Z,5.25
2023-03-04T07:08:52.289Z,5.29
2023-03-04T07:09:52.295Z,5.29
2023-03-04T07:10:52.223Z,5.28
2023-03-04T07:11:52.205Z,5.23
2023-03-04T07:12:51.922Z,5.29
2023-03-04T07:13:52.161Z,5.33
2023-03-04T07:14:52.239Z,5.23
2023-03-04T07:15:52.056Z,5.29
2023-03-04T07:16:52.056Z,5.33
2023-03-04T07:17:51.987Z,5.25
2023-03-04T07:18:51.960Z,5.32
2023-03-04T07:19:51.924Z,5.35
2023-03-04T07:20:51.887Z,5.3
2023-03-04T07:21:51.896Z,5.35
2023-03-04T07:22:51.812Z,5.29
2023-03-04T07:23:51.790Z,5.29
2023-03-04T07:24:51.762Z,5.35
2023-03-04T07:25:51.747Z,5.26
2023-03-04T07:26:51.684Z,5.32
2023-03-04T07:27:51.651Z,5.29
2023-03-04T07:28:51.649Z,5.29
2023-03-04T07:29:51.609Z,5.26
2023-03-04T07:30:51.582Z,5.28
2023-03-04T07:31:54.649Z,5.29
2023-03-04T07:32:52.018Z,5.3
2023-03-04T07:33:51.458Z,5.28
2023-03-04T07:34:51.412Z,5.25
2023-03-04T07:35:51.473Z,5.26
2023-03-04T07:36:51.353Z,5.11
2023-03-04T07:37:51.308Z,5.12
2023-03-04T07:38:51.289Z,5.17
2023-03-04T07:39:51.238Z,5.1
2023-03-04T07:40:51.226Z,5.15
2023-03-04T07:41:51.380Z,5.12
2023-03-04T07:42:51.150Z,5.2
2023-03-04T07:43:51.120Z,5.29
2023-03-04T07:44:51.113Z,5.26
2023-03-04T07:45:51.226Z,5.28
2023-03-04T07:46:51.032Z,5.35
2023-03-04T07:47:50.973Z,5.41
2023-03-04T07:48:50.963Z,5.51
2023-03-04T07:49:50.904Z,5.5
2023-03-04T07:50:50.888Z,5.47
2023-03-04T07:51:50.858Z,5.5
2023-03-04T07:52:50.834Z,5.54
2023-03-04T07:53:50.804Z,5.57
2023-03-04T07:54:50.740Z,5.56
2023-03-04T07:55:50.708Z,5.51
2023-03-04T07:56:50.448Z,5.62
2023-03-04T07:57:50.706Z,5.65
2023-03-04T07:58:50.601Z,5.59
2023-03-04T07:59:50.580Z,5.65
2023-03-04T08:00:50.538Z,5.62
2023-03-04T08:01:50.583Z,5.65
2023-03-04T08:02:50.615Z,5.69
2023-03-04T08:03:50.679Z,5.65
2023-03-04T08:04:50.465Z,5.65
2023-03-04T08:05:50.376Z,5.65
2023-03-04T08:06:50.339Z,5.66
2023-03-04T08:07:50.309Z,5.72
2023-03-04T08:08:50.296Z,5.75
2023-03-04T08:09:50.246Z,5.73
2023-03-04T08:10:50.219Z,5.8
2023-03-04T08:11:50.172Z,5.79
2023-03-04T08:12:50.153Z,5.86
2023-03-04T08:13:50.180Z,5.86
2023-03-04T08:14:50.084Z,5.9
2023-03-04T08:15:50.275Z,5.86
2023-03-04T08:16:50.014Z,5.94
2023-03-04T08:17:50.003Z,6.02
2023-03-04T08:18:49.989Z,6.09
2023-03-04T08:19:49.909Z,6.16
2023-03-04T08:20:49.897Z,6.14
2023-03-04T08:21:49.855Z,6.28
2023-03-04T08:22:49.875Z,6.3
2023-03-04T08:23:50.030Z,6.26
2023-03-04T08:24:49.756Z,6.42
2023-03-04T08:25:49.713Z,6.46
2023-03-04T08:26:49.708Z,6.59
2023-03-04T08:27:49.660Z,6.63
2023-03-04T08:28:49.634Z,6.66
2023-03-04T08:29:49.617Z,6.64
2023-03-04T08:30:49.711Z,6.72
2023-03-04T08:31:53.434Z,6.7
2023-03-04T08:32:49.714Z,6.78
2023-03-04T08:33:49.490Z,6.85
2023-03-04T08:34:49.491Z,6.88
2023-03-04T08:35:49.645Z,6.81
2023-03-04T08:36:49.368Z,6.97
2023-03-04T08:37:49.353Z,6.97
2023-03-04T08:38:49.303Z,7.05
2023-03-04T08:39:49.303Z,6.99
2023-03-04T08:40:49.286Z,7.11
2023-03-04T08:41:49.231Z,6.92
2023-03-04T08:42:49.197Z,7.02
2023-03-04T08:43:49.182Z,6.92
2023-03-04T08:44:49.183Z,6.87
2023-03-04T08:45:49.153Z,7.07
2023-03-04T08:46:49.047Z,7
2023-03-04T08:47:49.025Z,7.05
2023-03-04T08:48:49.069Z,7
2023-03-04T08:49:48.980Z,6.95
2023-03-04T08:50:48.950Z,6.95
2023-03-04T08:51:48.891Z,7
2023-03-04T08:52:48.852Z,6.82
2023-03-04T08:53:48.833Z,6.93
2023-03-04T08:54:48.806Z,6.87
2023-03-04T08:55:48.767Z,6.88
2023-03-04T08:56:48.774Z,6.93
2023-03-04T08:57:48.695Z,6.96
2023-03-04T08:58:48.678Z,6.93
2023-03-04T08:59:48.662Z,6.92
2023-03-04T09:00:48.721Z,7.03
2023-03-04T09:01:48.911Z,6.93
2023-03-04T09:02:48.544Z,6.85
2023-03-04T09:03:48.610Z,6.88
2023-03-04T09:04:48.493Z,6.92
2023-03-04T09:05:48.472Z,6.89
2023-03-04T09:06:48.444Z,6.87
2023-03-04T09:07:48.394Z,6.87
2023-03-04T09:08:48.376Z,6.7
2023-03-04T09:09:48.323Z,6.75
2023-03-04T09:10:48.050Z,6.81
2023-03-04T09:11:48.261Z,6.79
2023-03-04T09:12:48.235Z,6.89
2023-03-04T09:13:48.265Z,6.97
2023-03-04T09:14:53.258Z,6.99
2023-03-04T09:15:48.339Z,7.13
2023-03-04T09:16:48.109Z,7.14
2023-03-04T09:17:48.114Z,7.1
2023-03-04T09:18:48.048Z,7.21
2023-03-04T09:19:48.012Z,7.15
2023-03-04T09:20:47.992Z,7.06
2023-03-04T09:21:47.977Z,7.05
2023-03-04T09:22:47.992Z,6.95
2023-03-04T09:23:47.888Z,6.88
2023-03-04T09:24:47.858Z,6.75
2023-03-04T09:25:47.818Z,6.69
2023-03-04T09:26:47.784Z,6.51
2023-03-04T09:27:47.757Z,6.46
2023-03-04T09:28:47.730Z,6.44
2023-03-04T09:29:47.697Z,6.39
2023-03-04T09:30:48.492Z,6.46
2023-03-04T09:31:47.839Z,6.54
2023-03-04T09:32:47.605Z,6.54
2023-03-04T09:33:47.612Z,6.64
2023-03-04T09:34:47.601Z,6.64
2023-03-04T09:35:47.734Z,6.77
2023-03-04T09:36:47.472Z,6.81
2023-03-04T09:37:47.464Z,6.7
2023-03-04T09:38:47.460Z,6.66
2023-03-04T09:39:47.384Z,6.67
2023-03-04T09:40:47.395Z,6.72
2023-03-04T09:41:47.325Z,6.67
2023-03-04T09:42:49.702Z,6.66
2023-03-04T09:43:47.246Z,6.74
2023-03-04T09:44:47.253Z,6.63
2023-03-04T09:45:47.181Z,6.62
2023-03-04T09:46:47.466Z,6.64
2023-03-04T09:47:47.141Z,6.7
2023-03-04T09:48:46.858Z,6.7
2023-03-04T09:49:47.117Z,6.67
2023-03-04T09:50:47.067Z,6.7
2023-03-04T09:51:46.992Z,6.6
2023-03-04T09:52:46.972Z,6.7
2023-03-04T09:53:46.967Z,6.63
2023-03-04T09:54:46.935Z,6.7
2023-03-04T09:55:46.897Z,6.7
2023-03-04T09:56:46.842Z,6.72
2023-03-04T09:57:46.826Z,6.72
2023-03-04T09:58:46.803Z,6.69
2023-03-04T09:59:46.747Z,6.59
2023-03-04T10:00:47.145Z,6.72
2023-03-04T10:01:46.694Z,6.66
2023-03-04T10:02:46.646Z,6.64
2023-03-04T10:03:46.916Z,6.66
2023-03-04T10:04:46.825Z,6.54
2023-03-04T10:05:46.588Z,6.48
2023-03-04T10:06:46.534Z,6.31
2023-03-04T10:07:46.486Z,6.3
2023-03-04T10:08:46.450Z,6.28
2023-03-04T10:09:46.213Z,6.3
2023-03-04T10:10:46.540Z,6.31
2023-03-04T10:11:46.364Z,6.46
2023-03-04T10:12:46.336Z,6.49
2023-03-04T10:13:46.300Z,6.51
2023-03-04T10:14:46.262Z,6.63
2023-03-04T10:15:46.236Z,6.77
2023-03-04T10:16:46.261Z,6.85
2023-03-04T10:17:46.173Z,7.02
2023-03-04T10:18:46.140Z,7.14
2023-03-04T10:19:46.110Z,7.4
2023-03-04T10:20:46.102Z,7.56
2023-03-04T10:21:46.070Z,7.5
2023-03-04T10:22:46.020Z,7.47
2023-03-04T10:23:45.982Z,7.56
2023-03-04T10:24:45.942Z,7.5
2023-03-04T10:25:45.953Z,7.51
2023-03-04T10:26:45.907Z,7.48
2023-03-04T10:27:45.858Z,7.6
2023-03-04T10:28:45.838Z,7.72
2023-03-04T10:29:48.013Z,7.76
2023-03-04T10:30:45.764Z,7.66
2023-03-04T10:31:45.866Z,7.63
2023-03-04T10:32:45.818Z,7.66
2023-03-04T10:33:45.656Z,7.66
2023-03-04T10:34:45.631Z,7.66
2023-03-04T10:35:45.750Z,7.58
2023-03-04T10:36:45.570Z,7.61
2023-03-04T10:37:45.573Z,7.47
2023-03-04T10:38:45.510Z,7.53
2023-03-04T10:39:45.563Z,7.53
2023-03-04T10:40:48.166Z,7.56
2023-03-04T10:41:45.687Z,7.42
2023-03-04T10:42:45.735Z,7.39
2023-03-04T10:43:45.357Z,7.39
2023-03-04T10:44:45.331Z,7.47
2023-03-04T10:45:45.626Z,7.48
2023-03-04T10:46:45.269Z,7.38
2023-03-04T10:47:45.230Z,7.39
2023-03-04T10:48:45.203Z,7.31
2023-03-04T10:49:45.165Z,7.33
2023-03-04T10:50:45.127Z,7.36
2023-03-04T10:51:45.099Z,7.32
2023-03-04T10:52:45.085Z,7.25
2023-03-04T10:53:45.083Z,7.31
2023-03-04T10:54:45.008Z,7.25
2023-03-04T10:55:44.974Z,7.38
2023-03-04T10:56:45.003Z,7.38
2023-03-04T10:57:44.925Z,7.29
2023-03-04T10:58:44.908Z,7.33
2023-03-04T10:59:44.845Z,7.33
2023-03-04T11:00:44.874Z,7.32
2023-03-04T11:01:44.780Z,7.2
2023-03-04T11:02:44.750Z,7.1
2023-03-04T11:03:44.864Z,7.06
2023-03-04T11:04:44.691Z,7.11
2023-03-04T11:05:44.686Z,6.93
2023-03-04T11:06:44.643Z,7.02
2023-03-04T11:08:00.227Z,6.92
2023-03-04T11:08:44.566Z,7
2023-03-04T11:09:44.556Z,6.93
2023-03-04T11:10:44.507Z,6.88
2023-03-04T11:11:44.487Z,6.79
2023-03-04T11:12:44.475Z,6.77
2023-03-04T11:13:44.408Z,6.72
2023-03-04T11:14:44.404Z,6.75
2023-03-04T11:15:44.338Z,6.89
2023-03-04T11:16:44.548Z,6.88
2023-03-04T11:17:44.271Z,6.99
2023-03-04T11:18:44.021Z,7.06
2023-03-04T11:19:44.236Z,7.05
2023-03-04T11:20:44.183Z,7.24
2023-03-04T11:21:45.125Z,7.33
2023-03-04T11:22:43.869Z,7.45
2023-03-04T11:23:44.082Z,7.53
2023-03-04T11:24:44.051Z,7.53
2023-03-04T11:25:44.049Z,7.56
2023-03-04T11:26:44.010Z,7.5
2023-03-04T11:27:43.999Z,7.6
2023-03-04T11:28:43.951Z,7.72
2023-03-04T11:29:43.901Z,7.77
2023-03-04T11:30:43.892Z,7.79
2023-03-04T11:31:44.000Z,7.77
2023-03-04T11:32:43.990Z,7.97
2023-03-04T11:33:43.762Z,8.03
2023-03-04T11:34:43.752Z,7.94
2023-03-04T11:35:43.929Z,7.91
2023-03-04T11:36:43.679Z,7.83
2023-03-04T11:37:43.660Z,7.93
2023-03-04T11:38:43.627Z,7.85
2023-03-04T11:39:43.605Z,7.79
2023-03-04T11:40:43.668Z,7.79
2023-03-04T11:41:43.574Z,7.75
2023-03-04T11:42:43.520Z,7.75
2023-03-04T11:43:43.504Z,7.73
2023-03-04T11:44:43.480Z,7.79
2023-03-04T11:45:43.548Z,7.7
2023-03-04T11:46:43.435Z,7.76
2023-03-04T11:47:43.361Z,7.75
2023-03-04T11:48:43.334Z,7.79
2023-03-04T11:49:43.305Z,7.82
2023-03-04T11:50:43.272Z,7.85
2023-03-04T11:51:43.265Z,7.63
2023-03-04T11:52:43.219Z,7.63
2023-03-04T11:53:43.186Z,7.63
2023-03-04T11:54:43.163Z,7.66
2023-03-04T11:55:43.121Z,7.63
2023-03-04T11:56:43.106Z,7.73
2023-03-04T11:57:43.087Z,7.67
2023-03-04T11:58:43.033Z,7.54
2023-03-04T11:59:43.006Z,7.69
2023-03-04T12:00:43.000Z,7.56
2023-03-04T12:01:42.933Z,7.5
2023-03-04T12:02:42.922Z,7.58
2023-03-04T12:03:42.985Z,7.63
2023-03-04T12:04:43.188Z,7.72
2023-03-04T12:05:42.827Z,7.75
2023-03-04T12:06:42.787Z,7.69
2023-03-04T12:07:42.747Z,7.63
2023-03-04T12:08:42.916Z,7.53
2023-03-04T12:09:42.690Z,7.47
2023-03-04T12:10:42.447Z,7.48
2023-03-04T12:11:42.654Z,7.4
2023-03-04T12:12:42.594Z,7.47
2023-03-04T12:13:42.592Z,7.39
2023-03-04T12:14:42.309Z,7.4
2023-03-04T12:15:42.798Z,7.43
2023-03-04T12:16:42.553Z,7.47
2023-03-04T12:17:42.451Z,7.42
2023-03-04T12:18:42.423Z,7.51
2023-03-04T12:19:42.376Z,7.54
2023-03-04T12:20:42.386Z,7.53
2023-03-04T12:21:42.312Z,7.61
2023-03-04T12:22:42.286Z,7.58
2023-03-04T12:23:42.253Z,7.75
2023-03-04T12:24:42.222Z,7.83
2023-03-04T12:25:42.199Z,7.82
2023-03-04T12:26:41.958Z,7.88
2023-03-04T12:27:42.124Z,7.8
2023-03-04T12:28:42.112Z,7.87
2023-03-04T12:29:42.104Z,7.82
2023-03-04T12:30:42.031Z,7.8
2023-03-04T12:31:42.114Z,7.69
2023-03-04T12:32:42.117Z,7.6
2023-03-04T12:33:42.288Z,7.61
2023-03-04T12:34:41.942Z,7.54
2023-03-04T12:35:42.032Z,7.5
2023-03-04T12:36:41.869Z,7.47
2023-03-04T12:37:41.966Z,7.42
2023-03-04T12:38:41.798Z,7.29
2023-03-04T12:39:41.832Z,7.35
2023-03-04T12:40:41.722Z,7.25
2023-03-04T12:41:41.711Z,7.2
2023-03-04T12:42:41.655Z,7.11
2023-03-04T12:43:41.633Z,7.03
2023-03-04T12:44:41.608Z,6.93
2023-03-04T12:45:41.604Z,6.95
2023-03-04T12:46:41.789Z,6.95
2023-03-04T12:47:41.491Z,6.99
2023-03-04T12:48:41.613Z,6.87
2023-03-04T12:49:41.431Z,6.81
2023-03-04T12:50:41.439Z,6.93
2023-03-04T12:51:41.381Z,6.92
2023-03-04T12:52:41.360Z,6.93
2023-03-04T12:53:41.378Z,6.88
2023-03-04T12:54:41.277Z,6.93
2023-03-04T12:55:41.249Z,7.05
2023-03-04T12:56:41.210Z,7.06
2023-03-04T12:57:41.172Z,7.14
2023-03-04T12:58:41.145Z,7.1
2023-03-04T12:59:41.208Z,7.24
2023-03-04T13:00:41.085Z,7.21
2023-03-04T13:01:41.094Z,7.14
2023-03-04T13:02:41.531Z,7.24
2023-03-04T13:03:41.077Z,7.32
2023-03-04T13:04:40.991Z,7.36
2023-03-04T13:05:40.927Z,7.43
2023-03-04T13:06:40.914Z,7.4
2023-03-04T13:07:40.882Z,7.35
2023-03-04T13:08:40.832Z,7.32
2023-03-04T13:09:40.815Z,7.4
2023-03-04T13:10:41.115Z,7.39
2023-03-04T13:11:40.731Z,7.39
2023-03-04T13:12:40.716Z,7.43
2023-03-04T13:13:40.809Z,7.47
2023-03-04T13:14:40.659Z,7.58
2023-03-04T13:15:40.632Z,7.63
2023-03-04T13:16:40.585Z,7.66
2023-03-04T13:17:43.216Z,7.6
2023-03-04T13:18:40.519Z,7.63
2023-03-04T13:19:40.496Z,7.77
2023-03-04T13:20:40.493Z,7.79
2023-03-04T13:21:40.423Z,7.73